AirNav   TITAN Aviation Fuels
 
 928 users online  

CD04 S F Heliport
Westminster, Colorado, USA

GOING TO WESTMINSTER?


FAA INFORMATION EFFECTIVE 08 SEPTEMBER 2022

Location

FAA Identifier: CD04
Lat/Long: 39-49-14.9500N 105-03-13.9370W
39-49.249167N 105-03.232283W
39.8208194,-105.0538714
(estimated)
Elevation: 5500 ft. / 1676 m (estimated)
Variation: 12E (1985)
Time zone: UTC -6 (UTC -7 during Standard Time)
Zip code: 80003

Heliport Operations

Heliport use: Private use. Permission required prior to landing
Activation date: 01/1987
Control tower: no
ARTCC: DENVER CENTER
FSS: DENVER FLIGHT SERVICE STATION
Attendance: UNATNDD
Segmented circle: no

Heliport Communications

WX AWOS-3 at BJC (6 nm NW): PHONE 720-887-8067
WX AWOS-3 at EIK (11 nm N): 133.825 (303-604-4339)
WX AWOS-3 at BDU (15 nm NW): 118.825 (303-541-9540)
WX ASOS at DEN (18 nm E): PHONE 303-342-1920
WX ASOS at APA (18 nm SE): PHONE 720-873-2799

Nearby radio navigation aids

VOR radial/distance  VOR name  Freq  Var
BJCr134/6.8JEFFCO VOR/DME115.4011E
DENr264/18.1DENVER VOR/DME117.9008E
DVVr249/20.3MILE HIGH VORTAC114.7008E
FQFr280/21.5FALCON VORTAC116.3011E

Heliport Services

Runway Information

Helipad H1

Dimensions: 75 x 30 ft. / 23 x 9 m
Surface: concrete
Traffic pattern: leftleft

Heliport Ownership and Management from official FAA records

Ownership: Privately-owned
Owner: SHOENBERG FARMS, INC.
7255 N. SHERIDAN
ARVADA, CO 80003
Phone 303-429-1536

Additional Remarks

FOR CD CTC DENVER APCH AT 303-342-1916.

Instrument Procedures

There are no published instrument procedures at CD04.

Some nearby airports with instrument procedures:

KBJC - Rocky Mountain Metro Airport (6 nm NW)
KEIK - Erie Municipal Airport (11 nm N)
KBKF - Buckley Space Force Base (16 nm SE)
KDEN - Denver International Airport (18 nm E)
KAPA - Centennial Airport (18 nm SE)
 
Loc | Ops | Rwys | IFR | FBO | Links
Com | Nav | Svcs | Stats | Notes

AirBoss

 
Area around CD04 (S F Heliport)
 
Road maps at: MapQuest Bing Google
 
Aerial photo
No photo
 
Sectional chart

 
Airport distance calculator
Flying to S F Heliport? Find the distance to fly.

From to CD04

Sunrise and sunset
Times for 24-Sep-2022
 Local
(UTC-6)
 Zulu
(UTC)
Morning civil twilight06:2412:24
Sunrise06:5112:51
Sunset18:5400:54
Evening civil twilight19:2101:21

Current date and time
Zulu (UTC)  24-Sep-2022 23:13:44
Local (UTC-6)  24-Sep-2022 17:13:44
 
METAR
KBJC 
6nm NW 
242245Z 10004KT 10SM SKC 27/M03 A3020
KEIK 
11nm N 
242255Z AUTO 06006KT 10SM CLR 27/M05 A3016 RMK AO2 T02731048 PWINO
K1V5 
15nm NW 
AWOS 118.825 303-541-9540
No observation available
KBDU 
15nm NW 
242255Z AUTO 07003KT 10SM CLR 26/M01 A3018 RMK AO2
KBKF 
15nm SE 
242258Z 33005KT 10SM FEW100 27/M04 A3020 RMK AO2A SLP164 T02701038
KAPA 
18nm SE 
242253Z 02006KT 10SM FEW100 26/M04 A3020 RMK AO2 SLP173 T02611044
KDEN 
19nm E 
242253Z 07006KT 10SM FEW100 26/M04 A3018 RMK AO2 SLP155 T02611044
TAF
KBJC 
6nm NW 
241740Z 2418/2518 VRB03KT P6SM SKC FM241900 07007KT P6SM SKC FM250500 35005KT P6SM SKC
KBKF 
15nm SE 
241700Z 2417/2523 VRB06KT 9999 SKC 510023 QNH3021INS TX24/2422Z TN07/2512Z
KAPA 
18nm SE 
241740Z 2418/2518 VRB05KT P6SM FEW100 FEW220 FM242200 08006KT P6SM FEW220 FM250700 01006KT P6SM FEW220 FM251100 19006KT P6SM SKC FM251700 04006KT P6SM SKC
KDEN 
19nm E 
242032Z 2421/2524 01009KT P6SM FEW100 FEW220 FM242230 04010KT P6SM FEW100 FEW220 FM250000 09006KT P6SM FEW220 FM250600 01006KT P6SM FEW220 FM251000 20006KT P6SM SKC FM251700 02007KT P6SM SKC FM252000 07007KT P6SM FEW120
NOTAMs
Click for the latest NOTAMs
NOTAMs are issued by the DoD/FAA and will open in a separate window not controlled by AirNav.

 

 
 

Would you like to see your business listed on this page?

 If your business provides an interesting product or service to pilots, flight crews, aircraft, or users of the S F Heliport, you should consider listing it here.  To start the listing process, click on the button below
 
Add a business
 

Other Pages about S F Heliport

Update a link
 
Copyright © AirNav, LLC. All rights reserved. Privacy Policy  Contact